sensor_id;sensor_type;location;lat;lon;timestamp;temperature;humidity
74513;DHT22;62992;52.052;8.550;2022-08-30T00:02:20;15.00;99.90
74513;DHT22;62992;52.052;8.550;2022-08-30T00:04:46;15.10;99.90
74513;DHT22;62992;52.052;8.550;2022-08-30T00:07:12;15.00;99.90
74513;DHT22;62992;52.052;8.550;2022-08-30T00:09:38;15.00;99.90
74513;DHT22;62992;52.052;8.550;2022-08-30T00:12:03;15.00;99.90
74513;DHT22;62992;52.052;8.550;2022-08-30T00:14:29;15.00;99.90
74513;DHT22;62992;52.052;8.550;2022-08-30T00:16:55;14.90;99.90
74513;DHT22;62992;52.052;8.550;2022-08-30T00:19:20;14.90;99.90
74513;DHT22;62992;52.052;8.550;2022-08-30T00:21:46;14.90;99.90
74513;DHT22;62992;52.052;8.550;2022-08-30T00:24:12;14.90;99.90
74513;DHT22;62992;52.052;8.550;2022-08-30T00:26:37;14.90;99.90
74513;DHT22;62992;52.052;8.550;2022-08-30T00:29:03;14.90;99.90
74513;DHT22;62992;52.052;8.550;2022-08-30T00:31:28;14.90;99.90
74513;DHT22;62992;52.052;8.550;2022-08-30T00:33:54;14.90;99.90
74513;DHT22;62992;52.052;8.550;2022-08-30T00:36:20;14.90;99.90
74513;DHT22;62992;52.052;8.550;2022-08-30T00:38:45;14.90;99.90
74513;DHT22;62992;52.052;8.550;2022-08-30T00:41:11;14.90;99.90
74513;DHT22;62992;52.052;8.550;2022-08-30T00:43:36;14.90;99.90
74513;DHT22;62992;52.052;8.550;2022-08-30T00:46:03;14.80;99.90
74513;DHT22;62992;52.052;8.550;2022-08-30T00:48:30;14.90;99.90
74513;DHT22;62992;52.052;8.550;2022-08-30T00:51:04;14.90;99.90
74513;DHT22;62992;52.052;8.550;2022-08-30T00:53:35;15.00;99.90
74513;DHT22;62992;52.052;8.550;2022-08-30T00:56:02;15.00;99.90
74513;DHT22;62992;52.052;8.550;2022-08-30T00:58:35;15.10;99.90
74513;DHT22;62992;52.052;8.550;2022-08-30T01:01:03;15.10;99.90
74513;DHT22;62992;52.052;8.550;2022-08-30T01:03:30;15.10;99.90
74513;DHT22;62992;52.052;8.550;2022-08-30T01:05:57;15.10;99.90
74513;DHT22;62992;52.052;8.550;2022-08-30T01:08:23;15.20;99.90
74513;DHT22;62992;52.052;8.550;2022-08-30T01:10:50;15.20;99.90
74513;DHT22;62992;52.052;8.550;2022-08-30T01:13:19;15.10;99.90
74513;DHT22;62992;52.052;8.550;2022-08-30T01:15:46;15.20;99.90
74513;DHT22;62992;52.052;8.550;2022-08-30T01:18:13;15.10;99.90
74513;DHT22;62992;52.052;8.550;2022-08-30T01:23:39;15.00;99.90
74513;DHT22;62992;52.052;8.550;2022-08-30T01:26:07;14.90;99.90
74513;DHT22;62992;52.052;8.550;2022-08-30T01:28:33;14.90;99.90
74513;DHT22;62992;52.052;8.550;2022-08-30T01:30:59;14.90;99.90
74513;DHT22;62992;52.052;8.550;2022-08-30T01:33:26;14.80;99.90
74513;DHT22;62992;52.052;8.550;2022-08-30T01:35:55;14.80;99.90
74513;DHT22;62992;52.052;8.550;2022-08-30T01:38:25;14.80;99.90
74513;DHT22;62992;52.052;8.550;2022-08-30T01:40:57;14.80;99.90
74513;DHT22;62992;52.052;8.550;2022-08-30T01:43:24;14.80;99.90
74513;DHT22;62992;52.052;8.550;2022-08-30T01:45:49;14.70;99.90
74513;DHT22;62992;52.052;8.550;2022-08-30T01:48:15;14.70;99.90
74513;DHT22;62992;52.052;8.550;2022-08-30T01:50:41;14.60;99.90
74513;DHT22;62992;52.052;8.550;2022-08-30T01:53:07;14.70;99.90
74513;DHT22;62992;52.052;8.550;2022-08-30T01:55:33;14.70;99.90
74513;DHT22;62992;52.052;8.550;2022-08-30T01:57:59;14.60;99.90
74513;DHT22;62992;52.052;8.550;2022-08-30T02:00:25;14.70;99.90
74513;DHT22;62992;52.052;8.550;2022-08-30T02:02:51;14.60;99.90
74513;DHT22;62992;52.052;8.550;2022-08-30T02:05:17;14.60;99.90
74513;DHT22;62992;52.052;8.550;2022-08-30T02:07:42;14.50;99.90
74513;DHT22;62992;52.052;8.550;2022-08-30T02:10:08;14.50;99.90
74513;DHT22;62992;52.052;8.550;2022-08-30T02:12:34;14.50;99.90
74513;DHT22;62992;52.052;8.550;2022-08-30T02:15:00;14.50;99.90
74513;DHT22;62992;52.052;8.550;2022-08-30T02:17:26;14.50;99.90
74513;DHT22;62992;52.052;8.550;2022-08-30T02:19:51;14.40;99.90
74513;DHT22;62992;52.052;8.550;2022-08-30T02:22:17;14.40;99.90
74513;DHT22;62992;52.052;8.550;2022-08-30T02:24:45;14.40;99.90
74513;DHT22;62992;52.052;8.550;2022-08-30T02:27:10;14.40;99.90
74513;DHT22;62992;52.052;8.550;2022-08-30T02:29:36;14.40;99.90
74513;DHT22;62992;52.052;8.550;2022-08-30T02:32:02;14.40;99.90
74513;DHT22;62992;52.052;8.550;2022-08-30T02:34:28;14.30;99.90
74513;DHT22;62992;52.052;8.550;2022-08-30T02:36:54;14.40;99.90
74513;DHT22;62992;52.052;8.550;2022-08-30T02:39:19;14.30;99.90
74513;DHT22;62992;52.052;8.550;2022-08-30T02:41:45;14.40;99.90
74513;DHT22;62992;52.052;8.550;2022-08-30T02:44:10;14.30;99.90
74513;DHT22;62992;52.052;8.550;2022-08-30T02:46:37;14.30;99.90
74513;DHT22;62992;52.052;8.550;2022-08-30T02:49:03;14.30;99.90
74513;DHT22;62992;52.052;8.550;2022-08-30T02:51:29;14.30;99.90
74513;DHT22;62992;52.052;8.550;2022-08-30T02:53:54;14.30;99.90
74513;DHT22;62992;52.052;8.550;2022-08-30T02:56:20;14.30;99.90
74513;DHT22;62992;52.052;8.550;2022-08-30T02:58:46;14.30;99.90
74513;DHT22;62992;52.052;8.550;2022-08-30T03:01:13;14.40;99.90
74513;DHT22;62992;52.052;8.550;2022-08-30T03:03:40;14.50;99.90
74513;DHT22;62992;52.052;8.550;2022-08-30T03:06:07;14.50;99.90
74513;DHT22;62992;52.052;8.550;2022-08-30T03:08:35;14.50;99.90
74513;DHT22;62992;52.052;8.550;2022-08-30T03:11:01;14.60;99.90
74513;DHT22;62992;52.052;8.550;2022-08-30T03:13:27;14.50;99.90
74513;DHT22;62992;52.052;8.550;2022-08-30T03:15:53;14.50;99.90
74513;DHT22;62992;52.052;8.550;2022-08-30T03:18:20;14.50;99.90
74513;DHT22;62992;52.052;8.550;2022-08-30T03:20:46;14.60;99.90
74513;DHT22;62992;52.052;8.550;2022-08-30T03:23:13;14.60;99.90
74513;DHT22;62992;52.052;8.550;2022-08-30T03:25:39;14.60;99.90
74513;DHT22;62992;52.052;8.550;2022-08-30T03:28:06;14.60;99.90
74513;DHT22;62992;52.052;8.550;2022-08-30T03:30:32;14.60;99.90
74513;DHT22;62992;52.052;8.550;2022-08-30T03:32:58;14.60;99.90
74513;DHT22;62992;52.052;8.550;2022-08-30T03:35:24;14.60;99.90
74513;DHT22;62992;52.052;8.550;2022-08-30T03:37:49;14.60;99.90
74513;DHT22;62992;52.052;8.550;2022-08-30T03:40:16;14.70;99.90
74513;DHT22;62992;52.052;8.550;2022-08-30T03:42:44;14.60;99.90
74513;DHT22;62992;52.052;8.550;2022-08-30T03:45:10;14.60;99.90
74513;DHT22;62992;52.052;8.550;2022-08-30T03:47:36;14.60;99.90
74513;DHT22;62992;52.052;8.550;2022-08-30T03:50:03;14.60;99.90
74513;DHT22;62992;52.052;8.550;2022-08-30T03:52:29;14.50;99.90
74513;DHT22;62992;52.052;8.550;2022-08-30T03:54:54;14.50;99.90
74513;DHT22;62992;52.052;8.550;2022-08-30T03:57:20;14.50;99.90
74513;DHT22;62992;52.052;8.550;2022-08-30T03:59:46;14.50;99.90
74513;DHT22;62992;52.052;8.550;2022-08-30T04:02:11;14.50;99.90
74513;DHT22;62992;52.052;8.550;2022-08-30T04:04:37;14.50;99.90
74513;DHT22;62992;52.052;8.550;2022-08-30T04:07:02;14.50;99.90
74513;DHT22;62992;52.052;8.550;2022-08-30T04:09:28;14.50;99.90
74513;DHT22;62992;52.052;8.550;2022-08-30T04:11:54;14.60;99.90
74513;DHT22;62992;52.052;8.550;2022-08-30T04:14:19;14.60;99.90
74513;DHT22;62992;52.052;8.550;2022-08-30T04:16:47;14.60;99.90
74513;DHT22;62992;52.052;8.550;2022-08-30T04:19:13;14.60;99.90
74513;DHT22;62992;52.052;8.550;2022-08-30T04:21:38;14.50;99.90
74513;DHT22;62992;52.052;8.550;2022-08-30T04:24:04;14.60;99.90
74513;DHT22;62992;52.052;8.550;2022-08-30T04:26:30;14.50;99.90
74513;DHT22;62992;52.052;8.550;2022-08-30T04:28:56;14.50;99.90
74513;DHT22;62992;52.052;8.550;2022-08-30T04:31:22;14.50;99.90
74513;DHT22;62992;52.052;8.550;2022-08-30T04:33:48;14.50;99.90
74513;DHT22;62992;52.052;8.550;2022-08-30T04:36:14;14.40;99.90
74513;DHT22;62992;52.052;8.550;2022-08-30T04:38:40;14.40;99.90
74513;DHT22;62992;52.052;8.550;2022-08-30T04:41:12;14.50;99.90
74513;DHT22;62992;52.052;8.550;2022-08-30T04:43:41;14.40;99.90
74513;DHT22;62992;52.052;8.550;2022-08-30T04:46:08;14.40;99.90
74513;DHT22;62992;52.052;8.550;2022-08-30T04:48:35;14.30;99.90
74513;DHT22;62992;52.052;8.550;2022-08-30T04:51:06;14.30;99.90
74513;DHT22;62992;52.052;8.550;2022-08-30T04:53:33;14.30;99.90
74513;DHT22;62992;52.052;8.550;2022-08-30T04:55:58;14.30;99.90
74513;DHT22;62992;52.052;8.550;2022-08-30T04:58:24;14.30;99.90
74513;DHT22;62992;52.052;8.550;2022-08-30T05:00:50;14.30;99.90
74513;DHT22;62992;52.052;8.550;2022-08-30T05:03:15;14.20;99.90
74513;DHT22;62992;52.052;8.550;2022-08-30T05:05:47;14.30;99.90
74513;DHT22;62992;52.052;8.550;2022-08-30T05:08:15;14.40;99.90
74513;DHT22;62992;52.052;8.550;2022-08-30T05:10:46;14.50;99.90
74513;DHT22;62992;52.052;8.550;2022-08-30T05:13:13;14.40;99.90
74513;DHT22;62992;52.052;8.550;2022-08-30T05:15:39;14.50;99.90
74513;DHT22;62992;52.052;8.550;2022-08-30T05:18:06;14.50;99.90
74513;DHT22;62992;52.052;8.550;2022-08-30T05:20:33;14.50;99.90
74513;DHT22;62992;52.052;8.550;2022-08-30T05:23:00;14.50;99.90
74513;DHT22;62992;52.052;8.550;2022-08-30T05:25:28;14.50;99.90
74513;DHT22;62992;52.052;8.550;2022-08-30T05:27:54;14.50;99.90
74513;DHT22;62992;52.052;8.550;2022-08-30T05:30:21;14.50;99.90
74513;DHT22;62992;52.052;8.550;2022-08-30T05:32:47;14.60;99.90
74513;DHT22;62992;52.052;8.550;2022-08-30T05:35:15;14.70;99.90
74513;DHT22;62992;52.052;8.550;2022-08-30T05:37:41;14.70;99.90
74513;DHT22;62992;52.052;8.550;2022-08-30T05:40:07;14.70;99.90
74513;DHT22;62992;52.052;8.550;2022-08-30T05:42:33;14.70;99.90
74513;DHT22;62992;52.052;8.550;2022-08-30T05:45:01;14.80;99.90
74513;DHT22;62992;52.052;8.550;2022-08-30T05:47:27;14.80;99.90
74513;DHT22;62992;52.052;8.550;2022-08-30T05:49:53;14.80;99.90
74513;DHT22;62992;52.052;8.550;2022-08-30T05:52:19;14.80;99.90
74513;DHT22;62992;52.052;8.550;2022-08-30T05:54:49;14.80;99.90
74513;DHT22;62992;52.052;8.550;2022-08-30T05:57:15;14.70;99.90
74513;DHT22;62992;52.052;8.550;2022-08-30T05:59:41;14.80;99.90
74513;DHT22;62992;52.052;8.550;2022-08-30T06:02:07;14.80;99.90
74513;DHT22;62992;52.052;8.550;2022-08-30T06:04:32;14.90;99.90
74513;DHT22;62992;52.052;8.550;2022-08-30T06:06:58;14.80;99.90
74513;DHT22;62992;52.052;8.550;2022-08-30T06:09:23;14.80;99.90
74513;DHT22;62992;52.052;8.550;2022-08-30T06:11:49;14.90;99.90
74513;DHT22;62992;52.052;8.550;2022-08-30T06:14:15;15.00;99.90
74513;DHT22;62992;52.052;8.550;2022-08-30T06:16:42;14.90;99.90
74513;DHT22;62992;52.052;8.550;2022-08-30T06:19:13;14.70;99.90
74513;DHT22;62992;52.052;8.550;2022-08-30T06:21:39;14.70;99.90
74513;DHT22;62992;52.052;8.550;2022-08-30T06:24:07;14.80;99.90
74513;DHT22;62992;52.052;8.550;2022-08-30T06:26:37;14.80;99.90
74513;DHT22;62992;52.052;8.550;2022-08-30T06:29:03;14.90;99.90
74513;DHT22;62992;52.052;8.550;2022-08-30T06:31:28;14.90;99.90
74513;DHT22;62992;52.052;8.550;2022-08-30T06:33:54;14.80;99.90
74513;DHT22;62992;52.052;8.550;2022-08-30T06:36:22;14.90;99.90
74513;DHT22;62992;52.052;8.550;2022-08-30T06:38:49;14.80;99.90
74513;DHT22;62992;52.052;8.550;2022-08-30T06:41:18;14.80;99.90
74513;DHT22;62992;52.052;8.550;2022-08-30T06:43:44;14.90;99.90
74513;DHT22;62992;52.052;8.550;2022-08-30T06:46:14;14.90;99.90
74513;DHT22;62992;52.052;8.550;2022-08-30T06:48:40;15.00;99.90
74513;DHT22;62992;52.052;8.550;2022-08-30T06:51:06;15.00;99.90
74513;DHT22;62992;52.052;8.550;2022-08-30T06:53:32;15.10;99.90
74513;DHT22;62992;52.052;8.550;2022-08-30T06:56:00;15.30;99.90
74513;DHT22;62992;52.052;8.550;2022-08-30T06:58:27;15.50;99.90
74513;DHT22;62992;52.052;8.550;2022-08-30T07:00:53;15.90;99.90
74513;DHT22;62992;52.052;8.550;2022-08-30T07:03:18;16.10;99.90
74513;DHT22;62992;52.052;8.550;2022-08-30T07:05:46;16.40;99.90
74513;DHT22;62992;52.052;8.550;2022-08-30T07:08:12;16.80;99.90
74513;DHT22;62992;52.052;8.550;2022-08-30T07:10:39;17.00;99.90
74513;DHT22;62992;52.052;8.550;2022-08-30T07:13:05;17.50;99.90
74513;DHT22;62992;52.052;8.550;2022-08-30T07:15:31;17.70;99.90
74513;DHT22;62992;52.052;8.550;2022-08-30T07:17:57;18.30;99.90
74513;DHT22;62992;52.052;8.550;2022-08-30T07:20:42;18.00;99.90
74513;DHT22;62992;52.052;8.550;2022-08-30T07:23:08;19.60;99.90
74513;DHT22;62992;52.052;8.550;2022-08-30T07:25:35;18.70;99.90
74513;DHT22;62992;52.052;8.550;2022-08-30T07:28:01;21.60;99.90
74513;DHT22;62992;52.052;8.550;2022-08-30T07:30:27;24.30;99.90
74513;DHT22;62992;52.052;8.550;2022-08-30T07:32:52;24.80;99.90
74513;DHT22;62992;52.052;8.550;2022-08-30T07:35:18;25.40;99.90
74513;DHT22;62992;52.052;8.550;2022-08-30T07:37:44;25.70;99.90
74513;DHT22;62992;52.052;8.550;2022-08-30T07:40:10;25.60;99.90
74513;DHT22;62992;52.052;8.550;2022-08-30T07:42:36;26.60;99.90
74513;DHT22;62992;52.052;8.550;2022-08-30T07:45:02;26.30;99.90
74513;DHT22;62992;52.052;8.550;2022-08-30T07:47:28;24.60;99.80
74513;DHT22;62992;52.052;8.550;2022-08-30T07:49:53;22.10;99.90
74513;DHT22;62992;52.052;8.550;2022-08-30T07:52:19;20.50;99.90
74513;DHT22;62992;52.052;8.550;2022-08-30T07:54:45;19.90;99.90
74513;DHT22;62992;52.052;8.550;2022-08-30T07:57:10;20.90;99.90
74513;DHT22;62992;52.052;8.550;2022-08-30T07:59:36;21.60;99.90
74513;DHT22;62992;52.052;8.550;2022-08-30T08:02:02;22.00;99.90
74513;DHT22;62992;52.052;8.550;2022-08-30T08:04:27;23.40;99.90
74513;DHT22;62992;52.052;8.550;2022-08-30T08:06:53;22.30;99.90
74513;DHT22;62992;52.052;8.550;2022-08-30T08:09:19;23.00;99.90
74513;DHT22;62992;52.052;8.550;2022-08-30T08:11:44;25.20;99.90
74513;DHT22;62992;52.052;8.550;2022-08-30T08:14:10;25.80;99.90
74513;DHT22;62992;52.052;8.550;2022-08-30T08:16:36;26.20;98.10
74513;DHT22;62992;52.052;8.550;2022-08-30T08:19:02;26.60;98.30
74513;DHT22;62992;52.052;8.550;2022-08-30T08:21:29;26.60;97.80
74513;DHT22;62992;52.052;8.550;2022-08-30T08:23:54;24.90;99.30
74513;DHT22;62992;52.052;8.550;2022-08-30T08:26:20;25.10;99.90
74513;DHT22;62992;52.052;8.550;2022-08-30T08:28:46;24.40;99.90
74513;DHT22;62992;52.052;8.550;2022-08-30T08:31:23;24.20;99.90
74513;DHT22;62992;52.052;8.550;2022-08-30T08:33:49;23.60;99.90
74513;DHT22;62992;52.052;8.550;2022-08-30T08:36:15;23.80;99.90
74513;DHT22;62992;52.052;8.550;2022-08-30T08:38:41;22.70;99.90
74513;DHT22;62992;52.052;8.550;2022-08-30T08:41:19;23.20;99.90
74513;DHT22;62992;52.052;8.550;2022-08-30T08:43:47;22.20;99.90
74513;DHT22;62992;52.052;8.550;2022-08-30T08:49:02;23.70;99.90
74513;DHT22;62992;52.052;8.550;2022-08-30T08:51:35;23.10;99.90
74513;DHT22;62992;52.052;8.550;2022-08-30T08:54:48;22.70;99.90
74513;DHT22;62992;52.052;8.550;2022-08-30T08:57:16;22.30;99.90
74513;DHT22;62992;52.052;8.550;2022-08-30T08:59:43;22.40;99.90
74513;DHT22;62992;52.052;8.550;2022-08-30T09:02:33;22.80;99.90
74513;DHT22;62992;52.052;8.550;2022-08-30T09:05:02;22.40;99.90
74513;DHT22;62992;52.052;8.550;2022-08-30T09:07:41;23.00;99.90
74513;DHT22;62992;52.052;8.550;2022-08-30T09:10:08;23.30;99.90
74513;DHT22;62992;52.052;8.550;2022-08-30T09:12:34;22.70;99.90
74513;DHT22;62992;52.052;8.550;2022-08-30T09:15:19;22.80;99.90
74513;DHT22;62992;52.052;8.550;2022-08-30T09:18:00;22.80;99.90
74513;DHT22;62992;52.052;8.550;2022-08-30T09:20:36;22.10;99.90
74513;DHT22;62992;52.052;8.550;2022-08-30T09:23:24;22.20;99.90
74513;DHT22;62992;52.052;8.550;2022-08-30T09:25:56;22.30;99.90
74513;DHT22;62992;52.052;8.550;2022-08-30T09:28:33;22.40;99.90
74513;DHT22;62992;52.052;8.550;2022-08-30T09:36:40;22.30;99.90
74513;DHT22;62992;52.052;8.550;2022-08-30T09:39:18;22.90;99.90
74513;DHT22;62992;52.052;8.550;2022-08-30T09:41:47;23.20;99.90
74513;DHT22;62992;52.052;8.550;2022-08-30T09:44:20;23.00;99.90
74513;DHT22;62992;52.052;8.550;2022-08-30T09:46:53;23.40;99.90
74513;DHT22;62992;52.052;8.550;2022-08-30T09:49:36;23.90;99.90
74513;DHT22;62992;52.052;8.550;2022-08-30T10:00:18;24.50;99.90
74513;DHT22;62992;52.052;8.550;2022-08-30T10:09:18;23.80;99.90
74513;DHT22;62992;52.052;8.550;2022-08-30T10:22:48;24.60;99.90
74513;DHT22;62992;52.052;8.550;2022-08-30T10:25:19;24.40;99.90
74513;DHT22;62992;52.052;8.550;2022-08-30T10:30:32;24.20;99.90
74513;DHT22;62992;52.052;8.550;2022-08-30T10:33:04;23.80;99.90
74513;DHT22;62992;52.052;8.550;2022-08-30T10:35:55;23.70;99.90
74513;DHT22;62992;52.052;8.550;2022-08-30T10:38:28;23.60;99.90
74513;DHT22;62992;52.052;8.550;2022-08-30T10:49:28;24.20;99.90
74513;DHT22;62992;52.052;8.550;2022-08-30T10:54:54;25.10;99.90
74513;DHT22;62992;52.052;8.550;2022-08-30T10:57:23;24.40;99.90
74513;DHT22;62992;52.052;8.550;2022-08-30T10:59:59;24.60;99.90
74513;DHT22;62992;52.052;8.550;2022-08-30T11:15:29;25.60;98.80
74513;DHT22;62992;52.052;8.550;2022-08-30T11:18:10;25.80;98.70
74513;DHT22;62992;52.052;8.550;2022-08-30T11:20:48;25.10;98.30
74513;DHT22;62992;52.052;8.550;2022-08-30T11:36:09;24.70;99.30
74513;DHT22;62992;52.052;8.550;2022-08-30T11:41:27;25.10;99.30
74513;DHT22;62992;52.052;8.550;2022-08-30T11:43:53;25.00;97.80
74513;DHT22;62992;52.052;8.550;2022-08-30T11:46:35;24.40;99.80
74513;DHT22;62992;52.052;8.550;2022-08-30T12:00:26;24.50;98.00
74513;DHT22;62992;52.052;8.550;2022-08-30T12:03:29;24.70;98.50
74513;DHT22;62992;52.052;8.550;2022-08-30T12:06:03;23.80;99.60
74513;DHT22;62992;52.052;8.550;2022-08-30T12:16:22;24.50;99.40
74513;DHT22;62992;52.052;8.550;2022-08-30T12:19:16;23.60;99.90
74513;DHT22;62992;52.052;8.550;2022-08-30T12:21:54;23.00;99.90
74513;DHT22;62992;52.052;8.550;2022-08-30T12:24:29;23.50;99.90
74513;DHT22;62992;52.052;8.550;2022-08-30T12:26:57;24.10;99.90
74513;DHT22;62992;52.052;8.550;2022-08-30T12:29:29;23.80;99.90
74513;DHT22;62992;52.052;8.550;2022-08-30T12:32:01;23.40;99.90
74513;DHT22;62992;52.052;8.550;2022-08-30T12:37:06;23.50;99.90
74513;DHT22;62992;52.052;8.550;2022-08-30T12:39:37;23.80;99.90
74513;DHT22;62992;52.052;8.550;2022-08-30T12:42:25;23.90;99.90
74513;DHT22;62992;52.052;8.550;2022-08-30T12:44:53;23.50;99.90
74513;DHT22;62992;52.052;8.550;2022-08-30T12:47:26;23.50;99.90
74513;DHT22;62992;52.052;8.550;2022-08-30T12:49:54;23.60;99.90
74513;DHT22;62992;52.052;8.550;2022-08-30T12:52:32;23.30;99.90
74513;DHT22;62992;52.052;8.550;2022-08-30T12:57:43;23.20;99.90
74513;DHT22;62992;52.052;8.550;2022-08-30T13:00:36;22.90;99.90
74513;DHT22;62992;52.052;8.550;2022-08-30T13:03:32;22.60;99.90
74513;DHT22;62992;52.052;8.550;2022-08-30T13:05:59;22.60;99.90
74513;DHT22;62992;52.052;8.550;2022-08-30T13:11:02;23.00;99.90
74513;DHT22;62992;52.052;8.550;2022-08-30T13:18:42;22.90;99.90
74513;DHT22;62992;52.052;8.550;2022-08-30T13:23:44;22.90;99.90
74513;DHT22;62992;52.052;8.550;2022-08-30T13:26:10;22.90;99.90
74513;DHT22;62992;52.052;8.550;2022-08-30T13:28:47;23.00;99.70
74513;DHT22;62992;52.052;8.550;2022-08-30T13:31:13;23.10;99.80
74513;DHT22;62992;52.052;8.550;2022-08-30T13:33:39;23.30;99.90
74513;DHT22;62992;52.052;8.550;2022-08-30T13:36:05;23.20;99.90
74513;DHT22;62992;52.052;8.550;2022-08-30T13:38:31;23.10;99.90
74513;DHT22;62992;52.052;8.550;2022-08-30T13:40:56;22.80;99.90
74513;DHT22;62992;52.052;8.550;2022-08-30T13:43:22;22.70;99.90
74513;DHT22;62992;52.052;8.550;2022-08-30T13:45:47;22.70;99.90
74513;DHT22;62992;52.052;8.550;2022-08-30T13:48:14;22.50;99.90
74513;DHT22;62992;52.052;8.550;2022-08-30T13:50:40;22.50;99.90
74513;DHT22;62992;52.052;8.550;2022-08-30T13:53:07;22.60;99.90
74513;DHT22;62992;52.052;8.550;2022-08-30T13:55:36;22.60;99.90
74513;DHT22;62992;52.052;8.550;2022-08-30T13:58:02;22.70;99.90
74513;DHT22;62992;52.052;8.550;2022-08-30T14:00:28;22.80;99.90
74513;DHT22;62992;52.052;8.550;2022-08-30T14:02:54;22.90;99.90
74513;DHT22;62992;52.052;8.550;2022-08-30T14:05:24;22.80;99.90
74513;DHT22;62992;52.052;8.550;2022-08-30T14:07:52;22.80;99.90
74513;DHT22;62992;52.052;8.550;2022-08-30T14:10:18;23.00;99.90
74513;DHT22;62992;52.052;8.550;2022-08-30T14:12:45;22.90;99.90
74513;DHT22;62992;52.052;8.550;2022-08-30T14:15:10;23.00;99.90
74513;DHT22;62992;52.052;8.550;2022-08-30T14:17:36;23.00;99.90
74513;DHT22;62992;52.052;8.550;2022-08-30T14:20:02;23.00;99.90
74513;DHT22;62992;52.052;8.550;2022-08-30T14:22:27;22.70;99.90
74513;DHT22;62992;52.052;8.550;2022-08-30T14:24:53;22.70;99.90
74513;DHT22;62992;52.052;8.550;2022-08-30T14:27:19;22.70;99.90
74513;DHT22;62992;52.052;8.550;2022-08-30T14:29:45;22.80;99.90
74513;DHT22;62992;52.052;8.550;2022-08-30T14:32:10;22.80;99.90
74513;DHT22;62992;52.052;8.550;2022-08-30T14:34:36;22.80;99.90
74513;DHT22;62992;52.052;8.550;2022-08-30T14:37:02;22.90;99.90
74513;DHT22;62992;52.052;8.550;2022-08-30T14:39:31;22.80;99.90
74513;DHT22;62992;52.052;8.550;2022-08-30T14:41:56;22.90;99.90
74513;DHT22;62992;52.052;8.550;2022-08-30T14:44:24;23.00;99.90
74513;DHT22;62992;52.052;8.550;2022-08-30T14:46:50;23.00;99.70
74513;DHT22;62992;52.052;8.550;2022-08-30T14:49:16;23.00;99.90
74513;DHT22;62992;52.052;8.550;2022-08-30T14:51:42;23.10;99.90
74513;DHT22;62992;52.052;8.550;2022-08-30T14:54:11;23.10;98.60
74513;DHT22;62992;52.052;8.550;2022-08-30T14:56:38;22.90;98.60
74513;DHT22;62992;52.052;8.550;2022-08-30T14:59:05;22.80;98.40
74513;DHT22;62992;52.052;8.550;2022-08-30T15:01:31;22.80;98.80
74513;DHT22;62992;52.052;8.550;2022-08-30T15:03:57;22.90;98.50
74513;DHT22;62992;52.052;8.550;2022-08-30T15:06:23;22.90;98.00
74513;DHT22;62992;52.052;8.550;2022-08-30T15:08:49;22.80;98.40
74513;DHT22;62992;52.052;8.550;2022-08-30T15:11:17;22.80;98.70
74513;DHT22;62992;52.052;8.550;2022-08-30T15:13:44;22.90;99.00
74513;DHT22;62992;52.052;8.550;2022-08-30T15:16:35;22.90;98.60
74513;DHT22;62992;52.052;8.550;2022-08-30T15:19:01;22.70;98.30
74513;DHT22;62992;52.052;8.550;2022-08-30T15:21:32;22.70;98.90
74513;DHT22;62992;52.052;8.550;2022-08-30T15:23:59;22.60;99.10
74513;DHT22;62992;52.052;8.550;2022-08-30T15:26:25;22.50;97.70
74513;DHT22;62992;52.052;8.550;2022-08-30T15:28:51;22.60;98.60
74513;DHT22;62992;52.052;8.550;2022-08-30T15:31:22;22.50;98.00
74513;DHT22;62992;52.052;8.550;2022-08-30T15:33:49;22.50;98.00
74513;DHT22;62992;52.052;8.550;2022-08-30T15:36:15;22.50;98.20
74513;DHT22;62992;52.052;8.550;2022-08-30T15:38:41;22.50;97.70
74513;DHT22;62992;52.052;8.550;2022-08-30T15:41:09;22.50;98.00
74513;DHT22;62992;52.052;8.550;2022-08-30T15:43:35;22.40;97.60
74513;DHT22;62992;52.052;8.550;2022-08-30T15:46:17;22.40;98.20
74513;DHT22;62992;52.052;8.550;2022-08-30T15:48:44;22.40;98.20
74513;DHT22;62992;52.052;8.550;2022-08-30T15:51:10;22.40;98.00
74513;DHT22;62992;52.052;8.550;2022-08-30T15:53:36;22.40;98.00
74513;DHT22;62992;52.052;8.550;2022-08-30T15:56:02;22.40;98.10
74513;DHT22;62992;52.052;8.550;2022-08-30T15:58:28;22.40;97.40
74513;DHT22;62992;52.052;8.550;2022-08-30T16:00:54;22.40;98.20
74513;DHT22;62992;52.052;8.550;2022-08-30T16:03:19;22.30;97.10
74513;DHT22;62992;52.052;8.550;2022-08-30T16:05:45;22.40;97.60
74513;DHT22;62992;52.052;8.550;2022-08-30T16:08:11;22.30;97.70
74513;DHT22;62992;52.052;8.550;2022-08-30T16:10:39;22.30;98.80
74513;DHT22;62992;52.052;8.550;2022-08-30T16:13:05;22.30;97.50
74513;DHT22;62992;52.052;8.550;2022-08-30T16:15:31;22.20;96.80
74513;DHT22;62992;52.052;8.550;2022-08-30T16:17:56;22.20;96.40
74513;DHT22;62992;52.052;8.550;2022-08-30T16:20:22;22.20;96.70
74513;DHT22;62992;52.052;8.550;2022-08-30T16:22:48;22.20;97.30
74513;DHT22;62992;52.052;8.550;2022-08-30T16:25:13;22.20;96.00
74513;DHT22;62992;52.052;8.550;2022-08-30T16:27:39;22.10;96.10
74513;DHT22;62992;52.052;8.550;2022-08-30T16:30:08;22.10;96.60
74513;DHT22;62992;52.052;8.550;2022-08-30T16:32:35;22.00;96.00
74513;DHT22;62992;52.052;8.550;2022-08-30T16:35:00;22.00;95.90
74513;DHT22;62992;52.052;8.550;2022-08-30T16:37:26;21.90;95.90
74513;DHT22;62992;52.052;8.550;2022-08-30T16:39:52;21.90;95.90
74513;DHT22;62992;52.052;8.550;2022-08-30T16:42:17;21.80;95.90
74513;DHT22;62992;52.052;8.550;2022-08-30T16:44:43;21.70;96.00
74513;DHT22;62992;52.052;8.550;2022-08-30T16:47:08;21.70;96.10
74513;DHT22;62992;52.052;8.550;2022-08-30T16:49:34;21.60;96.60
74513;DHT22;62992;52.052;8.550;2022-08-30T16:52:00;21.60;96.30
74513;DHT22;62992;52.052;8.550;2022-08-30T16:54:25;21.50;96.40
74513;DHT22;62992;52.052;8.550;2022-08-30T16:56:51;21.50;96.70
74513;DHT22;62992;52.052;8.550;2022-08-30T16:59:17;21.50;97.00
74513;DHT22;62992;52.052;8.550;2022-08-30T17:01:42;21.50;96.80
74513;DHT22;62992;52.052;8.550;2022-08-30T17:04:09;21.50;97.40
74513;DHT22;62992;52.052;8.550;2022-08-30T17:06:35;21.40;97.50
74513;DHT22;62992;52.052;8.550;2022-08-30T17:09:01;21.40;97.20
74513;DHT22;62992;52.052;8.550;2022-08-30T17:11:26;21.40;98.30
74513;DHT22;62992;52.052;8.550;2022-08-30T17:13:52;21.30;97.20
74513;DHT22;62992;52.052;8.550;2022-08-30T17:16:19;21.30;96.20
74513;DHT22;62992;52.052;8.550;2022-08-30T17:18:45;21.30;96.50
74513;DHT22;62992;52.052;8.550;2022-08-30T17:21:10;21.20;97.00
74513;DHT22;62992;52.052;8.550;2022-08-30T17:23:36;21.10;96.80
74513;DHT22;62992;52.052;8.550;2022-08-30T17:26:01;21.10;96.00
74513;DHT22;62992;52.052;8.550;2022-08-30T17:28:27;21.00;95.70
74513;DHT22;62992;52.052;8.550;2022-08-30T17:30:53;21.00;96.10